Latest Weather Observations for Gold Coast Seaway

IDQ60901

Issued at 9:35 am EST Thursday 18 September 2014 (issued every 10 minutes, with the page automatically refreshed every 10 minutes)

About weather observations | Map of Brisbane area stations | Latest observations for Brisbane area | Other Formats
Station Details ID: 040764 Name: GOLD COAST SEAWAY Lat: -27.94 Lon: 153.43 Height: 2.98 m
Data from the previous 72 hours. | See also: Recent months at Gold Coast Seaway
Date/Time
EST
Tmp

°C
App
Tmp
°C
Dew
Point
°C
Rel
Hum
%
Delta-T

°C
Wind Press
QNH
hPa
Press
MSL
hPa
Rain
since
9 am
mm
Dir
 
Spd
km/h
Gust
km/h
Spd
kts
Gust
kts
18/09:30am 22.7 19.5 6.9 36 8.1 SE 13 17 7 9 1018.8 1018.8 0.0
18/09:00am 22.3 19.6 5.7 34 8.3 SE 9 13 5 7 1019.1 1019.1 0.0
18/08:30am 21.8 20.4 5.7 35 8.1 S 2 7 1 4 1019.1 1019.1 0.0
18/08:00am 20.0 16.7 2.4 31 8.1 WNW 9 11 5 6 1019.0 1019.0 0.0
18/07:30am 18.7 15.8 4.8 40 6.7 W 9 11 5 6 1018.9 1018.9 0.0
18/07:00am 17.3 15.2 6.5 49 5.3 WSW 7 11 4 6 1018.6 1018.6 0.0
18/06:30am 14.8 11.8 6.1 56 4.2 WSW 11 13 6 7 1018.2 1018.2 0.0
18/06:00am 13.1 10.8 7.3 68 2.8 W 9 13 5 7 1017.8 1017.8 0.0
18/05:30am 12.4 10.1 7.3 71 2.5 WNW 9 11 5 6 1017.3 1017.3 0.0
18/05:00am 12.4 10.5 6.7 68 2.7 WNW 6 7 3 4 1016.9 1016.9 0.0
18/04:30am 13.3 11.8 6.6 64 3.2 WNW 4 7 2 4 1016.4 1016.4 0.0
18/04:00am 13.5 11.7 7.1 65 3.1 W 6 9 3 5 1016.0 1016.0 0.0
18/03:30am 13.1 12.0 5.3 59 3.6 CALM 0 6 0 3 1015.4 1015.4 0.0
18/03:00am 14.7 11.9 5.2 53 4.5 WSW 9 11 5 6 1015.2 1015.2 0.0
18/02:30am 14.8 12.5 5.6 54 4.4 WSW 7 9 4 5 1014.9 1014.9 0.0
18/02:00am 16.5 13.9 6.3 51 5.0 SW 9 15 5 8 1014.7 1014.7 0.0
18/01:30am 16.3 13.6 7.5 56 4.4 SW 11 13 6 7 1014.4 1014.4 0.0
18/01:00am 15.8 12.7 7.3 57 4.2 SW 13 15 7 8 1014.7 1014.7 0.0
18/12:30am 16.4 14.0 8.6 60 4.0 SW 11 15 6 8 1014.9 1014.9 0.0
18/12:00am 15.1 15.9 12.4 84 1.5 CALM 0 0 0 0 1015.0 1015.0 0.0
 
Date/Time
EST
Tmp

°C
App
Tmp
°C
Dew
Point
°C
Rel
Hum
%
Delta-T

°C
Wind Press
QNH
hPa
Press
MSL
hPa
Rain
since
9 am
mm
Dir
 
Spd
km/h
Gust
km/h
Spd
kts
Gust
kts
17/11:30pm 15.7 16.5 12.5 81 1.8 CALM 0 0 0 0 1015.0 1015.0 0.0
17/11:00pm 16.3 16.9 13.0 81 1.8 NW 2 9 1 5 1014.9 1014.9 0.0
17/10:30pm 17.0 16.5 12.1 73 2.7 NW 6 9 3 5 1014.6 1014.6 0.0
17/10:00pm 18.4 17.5 12.6 69 3.2 NNW 9 11 5 6 1014.7 1014.7 0.0
17/09:30pm 19.0 17.3 12.5 66 3.6 NNW 13 15 7 8 1014.5 1014.5 0.0
17/09:00pm 19.3 17.4 13.0 67 3.6 NNW 15 19 8 10 1014.2 1014.2 0.0
17/08:30pm 19.8 17.9 13.0 65 3.8 NNW 15 17 8 9 1013.9 1013.9 0.0
17/08:00pm 20.2 17.6 11.9 59 4.6 N 17 22 9 12 1013.6 1013.6 0.0
17/07:30pm 20.8 18.1 11.7 56 5.1 NNW 17 20 9 11 1013.4 1013.4 0.0
17/07:00pm 21.3 19.1 12.2 56 5.1 NW 15 19 8 10 1012.9 1012.9 0.0
17/06:30pm 21.5 18.7 11.2 52 5.7 NNW 17 19 9 10 1012.3 1012.3 0.0
17/06:00pm 22.6 19.2 9.0 42 7.3 N 17 24 9 13 1011.6 1011.6 0.0
17/05:30pm 25.7 20.4 1.8 21 11.4 W 19 24 10 13 1010.9 1010.9 0.0
17/05:00pm 26.8 21.4 1.3 19 12.2 W 19 26 10 14 1010.6 1010.6 0.0
17/04:30pm 27.3 20.9 0.9 18 12.6 W 24 32 13 17 1010.3 1010.3 0.0
17/04:00pm 27.8 20.6 0.5 17 13.0 WNW 28 39 15 21 1010.0 1010.0 0.0
17/03:30pm 28.0 20.9 1.5 18 12.8 WNW 28 37 15 20 1010.0 1010.0 0.0
17/03:00pm 28.4 23.0 2.6 19 12.8 NW 20 30 11 16 1010.2 1010.2 0.0
17/02:30pm 27.9 21.8 2.9 20 12.4 NW 24 35 13 19 1010.3 1010.3 0.0
17/02:00pm 27.5 21.2 3.9 22 11.9 WNW 26 35 14 19 1010.8 1010.8 0.0
17/01:30pm 27.6 21.0 4.0 22 11.9 WNW 28 39 15 21 1011.1 1011.1 0.0
17/01:00pm 27.4 21.5 3.8 22 11.8 NW 24 35 13 19 1011.7 1011.7 0.0
17/12:30pm 26.7 21.0 2.6 21 11.8 W 22 32 12 17 1012.1 1012.1 0.0
17/12:00pm 26.5 20.5 3.1 22 11.5 WNW 24 33 13 18 1012.5 1012.5 0.0
17/11:30am 26.1 20.2 4.0 24 11.0 W 24 33 13 18 1013.1 1013.1 0.0
17/11:00am 25.9 19.1 3.2 23 11.1 WNW 28 37 15 20 1013.6 1013.6 0.0
17/10:30am 25.0 19.3 3.0 24 10.7 W 22 37 12 20 1014.1 1014.1 0.0
17/10:00am 24.6 18.9 2.7 24 10.6 W 22 33 12 18 1014.4 1014.4 0.0
17/09:30am 24.2 18.7 4.0 27 9.9 W 22 32 12 17 1014.7 1014.7 0.0
17/09:00am 23.2 18.9 7.7 37 8.1 W 20 32 11 17 1014.9 1014.9 -
17/08:30am 21.4 19.6 12.0 55 5.3 WNW 13 17 7 9 1014.9 1014.9 -
17/08:00am 20.2 18.6 12.9 63 4.1 NW 13 17 7 9 1015.0 1015.0 -
17/07:30am 18.9 16.0 12.4 66 3.6 NW 19 22 10 12 1014.8 1014.8 -
17/07:00am 18.0 15.1 12.2 69 3.2 NW 19 24 10 13 1014.3 1014.3 -
17/06:30am 17.4 14.6 12.5 73 2.7 NW 19 24 10 13 1013.9 1013.9 -
17/06:00am 17.0 14.1 12.9 77 2.3 NW 20 24 11 13 1013.5 1013.5 -
17/05:30am 17.2 14.3 12.9 76 2.4 NW 20 26 11 14 1013.2 1013.2 -
17/05:00am 17.9 15.2 13.4 75 2.5 NNW 20 28 11 15 1012.8 1012.8 -
17/04:30am 17.9 14.6 12.8 72 2.8 NNW 22 28 12 15 1012.8 1012.8 -
17/04:00am 18.2 14.4 12.4 69 3.2 NW 24 26 13 14 1012.4 1012.4 -
17/03:30am 18.2 15.1 12.2 68 3.3 NW 20 26 11 14 1012.2 1012.2 -
17/03:00am 18.3 15.8 12.3 68 3.3 NNW 17 24 9 13 1012.0 1012.0 0.0
17/02:30am 18.5 15.6 12.3 67 3.4 NNW 19 24 10 13 1012.1 1012.1 -
17/02:00am 18.8 15.8 12.5 67 3.5 NW 20 28 11 15 1012.4 1012.4 -
17/01:30am 18.6 15.9 12.8 69 3.3 NW 19 24 10 13 1012.5 1012.5 -
17/01:00am 19.1 16.8 13.1 68 3.4 NW 17 19 9 10 1012.7 1012.7 -
17/12:30am 19.5 18.0 14.1 71 3.1 NNW 15 19 8 10 1012.8 1012.8 -
17/12:00am 19.7 18.2 14.3 71 3.1 NNW 15 22 8 12 1012.8 1012.8 -
 
Date/Time
EST
Tmp

°C
App
Tmp
°C
Dew
Point
°C
Rel
Hum
%
Delta-T

°C
Wind Press
QNH
hPa
Press
MSL
hPa
Rain
since
9 am
mm
Dir
 
Spd
km/h
Gust
km/h
Spd
kts
Gust
kts
16/11:30pm 20.0 18.4 15.0 73 2.9 N 17 24 9 13 1013.1 1013.1 -
16/11:00pm 20.0 18.5 15.4 75 2.7 NNW 17 26 9 14 1013.0 1013.0 -
16/10:30pm 19.9 19.5 16.2 79 2.2 NNW 13 19 7 10 1013.2 1013.2 -
16/10:00pm 19.6 20.3 15.7 78 2.3 NW 6 7 3 4 1013.1 1013.1 -
16/09:30pm 20.7 21.0 16.1 75 2.8 NNW 9 17 5 9 1013.0 1013.0 -
16/09:00pm 20.5 20.0 15.9 75 2.7 N 13 22 7 12 1012.8 1012.8 0.2
16/08:30pm 20.8 19.5 15.8 73 3.0 N 17 24 9 13 1012.7 1012.7 -
16/08:00pm 20.8 18.6 14.9 69 3.5 N 20 33 11 18 1012.5 1012.5 -
16/07:30pm 20.6 18.6 15.6 73 3.0 N 20 28 11 15 1012.4 1012.4 -
16/07:00pm 21.1 20.2 16.9 77 2.6 NNW 17 30 9 16 1012.8 1012.8 -
16/06:30pm 21.3 20.0 16.9 76 2.7 NNW 19 28 10 15 1012.1 1012.1 -
16/06:00pm 21.2 19.7 16.4 74 2.9 N 19 26 10 14 1011.3 1011.3 -
16/05:30pm 21.7 20.5 16.2 71 3.3 N 17 30 9 16 1011.5 1011.5 -
16/05:00pm 21.4 18.3 17.6 79 2.3 N 30 35 16 19 1010.9 1010.9 -
16/04:30pm 22.0 18.6 17.6 76 2.7 N 32 39 17 21 1010.7 1010.7 -
16/04:00pm 22.4 18.8 17.3 73 3.1 N 32 41 17 22 1010.9 1010.9 -
16/03:30pm 22.5 19.0 17.4 73 3.1 N 32 35 17 19 1010.8 1010.8 -
16/03:00pm 22.8 19.7 17.5 72 3.3 N 30 33 16 18 1011.0 1011.0 -
16/02:30pm 22.9 19.2 17.4 71 3.4 N 33 37 18 20 1011.1 1011.1 0.0
16/02:00pm 23.6 20.0 17.6 69 3.7 NNE 33 37 18 20 1011.5 1011.5 0.0
16/01:30pm 25.3 21.3 14.1 50 6.6 N 28 39 15 21 1012.0 1012.0 0.0
16/01:00pm 25.4 20.4 10.8 40 8.2 N 28 39 15 21 1012.5 1012.5 0.0
16/12:30pm 25.3 20.3 11.1 41 8.0 N 28 32 15 17 1013.1 1013.1 0.0
16/12:00pm 24.1 20.7 14.8 56 5.5 NNE 26 32 14 17 1013.8 1013.8 0.0
16/11:30am 23.6 20.5 15.6 61 4.8 N 26 28 14 15 1014.4 1014.4 0.0
16/11:00am 23.6 21.4 15.9 62 4.7 NNE 22 28 12 15 1015.0 1015.0 0.0
16/10:30am 22.7 19.3 13.7 56 5.2 N 24 30 13 16 1015.4 1015.4 0.0
16/10:00am 23.0 19.8 11.1 47 6.6 NNW 19 28 10 15 1016.0 1016.0 0.0
16/09:30am 22.5 20.1 13.8 58 5.1 N 19 26 10 14 1016.6 1016.6 0.0
16/09:00am 21.0 19.4 15.1 69 3.5 N 17 22 9 12 1016.6 1016.6 3.8
16/08:30am 19.9 18.0 14.3 70 3.2 N 17 22 9 12 1016.8 1016.8 3.8
16/08:00am 18.8 17.3 14.3 75 2.6 NNW 15 24 8 13 1016.9 1016.9 3.8
16/07:30am 17.9 16.5 14.4 80 2.0 NNW 15 20 8 11 1016.8 1016.8 3.8
16/07:00am 17.1 15.8 14.7 86 1.4 NNW 15 20 8 11 1016.5 1016.5 3.8
16/06:30am 16.4 15.2 15.1 92 0.8 NNW 15 20 8 11 1016.3 1016.3 3.8
16/06:00am 16.0 15.8 15.7 98 0.2 NW 11 15 6 8 1016.3 1016.3 3.8
16/05:30am 16.0 15.7 15.4 96 0.3 NW 11 15 6 8 1016.0 1016.0 3.8
16/05:00am 15.7 15.4 15.5 99 0.1 NW 11 11 6 6 1015.8 1015.8 3.8
16/04:30am 15.4 15.4 15.2 99 0.1 WNW 9 13 5 7 1015.7 1015.7 3.8
16/04:00am 15.6 15.7 15.4 99 0.1 WNW 9 11 5 6 1015.5 1015.5 3.6
16/03:30am 15.6 15.3 15.4 99 0.1 WNW 11 11 6 6 1015.4 1015.4 3.6
16/03:00am 15.4 15.8 15.2 99 0.1 NW 7 9 4 5 1015.3 1015.3 3.6
16/02:30am 15.8 15.9 15.6 99 0.1 NNW 9 11 5 6 1015.2 1015.2 3.6
16/02:00am 15.6 16.2 15.4 99 0.1 SSW 6 9 3 5 1015.5 1015.5 3.6
16/01:30am 15.6 16.0 15.4 99 0.1 SSW 7 7 4 4 1015.8 1015.8 3.6
16/01:00am 15.8 15.9 15.6 99 0.1 SSW 9 11 5 6 1015.9 1015.9 3.6
16/12:30am 16.0 16.2 15.8 99 0.1 SSW 9 9 5 5 1016.1 1016.1 3.6
16/12:00am 16.0 16.6 15.8 99 0.1 W 7 9 4 5 1016.2 1016.2 3.6
 
Date/Time
EST
Tmp

°C
App
Tmp
°C
Dew
Point
°C
Rel
Hum
%
Delta-T

°C
Wind Press
QNH
hPa
Press
MSL
hPa
Rain
since
9 am
mm
Dir
 
Spd
km/h
Gust
km/h
Spd
kts
Gust
kts
15/11:30pm 16.5 17.3 16.3 99 0.1 W 7 9 4 5 1016.4 1016.4 3.6
15/11:00pm 16.3 16.9 15.3 94 0.6 W 6 7 3 4 1016.4 1016.4 3.6
15/10:30pm 17.0 17.7 16.0 94 0.6 W 7 9 4 5 1016.4 1016.4 3.6
15/10:00pm 17.2 17.6 15.4 89 1.0 W 7 9 4 5 1016.5 1016.5 3.6
15/09:30pm 17.8 17.9 15.4 86 1.4 NNW 9 13 5 7 1016.4 1016.4 3.6
15/09:00pm 18.3 17.9 15.2 82 1.8 N 11 15 6 8 1016.5 1016.5 3.6
15/08:30pm 18.5 17.8 15.4 82 1.8 NNW 13 17 7 9 1016.4 1016.4 3.6
15/08:00pm 18.5 17.9 15.7 84 1.7 WNW 13 15 7 8 1016.3 1016.3 3.6
15/07:30pm 19.0 17.7 15.9 82 1.8 NNW 17 24 9 13 1016.1 1016.1 3.6
15/07:00pm 19.6 17.2 16.4 82 1.9 N 24 32 13 17 1015.8 1015.8 3.6
15/06:30pm 19.3 19.4 15.4 78 2.3 N 9 22 5 12 1015.6 1015.6 3.6
15/06:00pm 18.9 14.2 14.4 75 2.6 E 32 37 17 20 1014.6 1014.6 3.6
15/05:49pm 18.9 15.2 15.9 83 1.8 ENE 30 41 16 22 1014.3 1014.3 3.6
15/05:30pm 19.1 17.8 15.8 81 2.0 SSW 17 24 9 13 1016.3 1016.3 1.2
15/05:00pm 20.6 17.2 15.8 74 2.9 N 28 37 15 20 1015.5 1015.5 0.2
15/04:30pm 20.9 16.0 15.2 70 3.4 N 35 43 19 23 1014.2 1014.2 0.2
15/04:00pm 21.2 16.4 14.6 66 3.9 NNE 33 39 18 21 1013.9 1013.9 0.2
15/03:30pm 22.0 17.0 15.1 65 4.1 NNE 35 41 19 22 1013.9 1013.9 0.2
15/03:00pm 21.8 17.1 15.9 69 3.5 NNE 35 41 19 22 1013.8 1013.8 0.2
15/02:30pm 23.1 18.9 15.7 63 4.5 NNE 32 37 17 20 1014.2 1014.2 0.2
15/02:00pm 24.1 20.0 14.8 56 5.5 NNE 30 33 16 18 1014.6 1014.6 0.2
15/01:30pm 24.2 19.9 13.1 50 6.4 NNE 28 32 15 17 1015.0 1015.0 0.2
15/01:00pm 24.2 20.3 13.4 51 6.3 NNE 26 30 14 16 1015.4 1015.4 0.2
15/12:30pm 25.2 22.1 14.6 51 6.3 NNE 24 35 13 19 1016.0 1016.0 0.2
15/12:00pm 25.8 23.5 14.6 50 6.7 N 20 26 11 14 1016.4 1016.4 0.2
15/11:30am 24.9 21.8 11.5 43 7.6 N 19 28 10 15 1017.0 1017.0 0.2
15/11:00am 24.0 20.3 10.3 42 7.5 N 20 26 11 14 1017.5 1017.5 0.2
15/10:30am 23.2 19.6 10.6 45 7.0 N 20 26 11 14 1018.1 1018.1 0.0
15/10:00am 22.5 18.6 9.6 44 7.0 NW 20 28 11 15 1018.5 1018.5 0.0

Latest Capital City Observations: Canberra | Sydney | Melbourne | Brisbane | Adelaide | Perth | Hobart | Darwin

Other Formats:

Comma delimited format used in spreadsheet applications
http://www.bom.gov.au/fwo/IDQ60901/IDQ60901.94580.axf

JavaScript Object Notation format (JSON) in row-major order
http://www.bom.gov.au/fwo/IDQ60901/IDQ60901.94580.json